sensor_id;sensor_type;location;lat;lon;timestamp;P1;durP1;ratioP1;P2;durP2;ratioP2
79348;SDS011;68817;48.110;11.660;2023-12-22T00:00:08;0.95;;;0.50;;
79348;SDS011;68817;48.110;11.660;2023-12-22T00:02:34;1.52;;;0.50;;
79348;SDS011;68817;48.110;11.660;2023-12-22T00:04:59;1.52;;;0.55;;
79348;SDS011;68817;48.110;11.660;2023-12-22T00:07:24;1.90;;;0.60;;
79348;SDS011;68817;48.110;11.660;2023-12-22T00:09:50;0.80;;;0.50;;
79348;SDS011;68817;48.110;11.660;2023-12-22T00:12:15;0.63;;;0.50;;
79348;SDS011;68817;48.110;11.660;2023-12-22T00:14:41;2.72;;;0.50;;
79348;SDS011;68817;48.110;11.660;2023-12-22T00:17:06;2.08;;;0.30;;
79348;SDS011;68817;48.110;11.660;2023-12-22T00:19:32;0.57;;;0.22;;
79348;SDS011;68817;48.110;11.660;2023-12-22T00:21:57;0.45;;;0.20;;
79348;SDS011;68817;48.110;11.660;2023-12-22T00:24:23;2.83;;;0.30;;
79348;SDS011;68817;48.110;11.660;2023-12-22T00:26:49;1.45;;;0.17;;
79348;SDS011;68817;48.110;11.660;2023-12-22T00:29:14;1.98;;;0.20;;
79348;SDS011;68817;48.110;11.660;2023-12-22T00:31:39;0.20;;;0.20;;
79348;SDS011;68817;48.110;11.660;2023-12-22T00:34:05;1.58;;;0.30;;
79348;SDS011;68817;48.110;11.660;2023-12-22T00:36:30;0.20;;;0.10;;
79348;SDS011;68817;48.110;11.660;2023-12-22T00:38:56;0.82;;;0.45;;
79348;SDS011;68817;48.110;11.660;2023-12-22T00:41:21;0.52;;;0.30;;
79348;SDS011;68817;48.110;11.660;2023-12-22T00:43:47;0.45;;;0.20;;
79348;SDS011;68817;48.110;11.660;2023-12-22T00:46:12;0.28;;;0.20;;
79348;SDS011;68817;48.110;11.660;2023-12-22T00:48:38;0.82;;;0.35;;
79348;SDS011;68817;48.110;11.660;2023-12-22T00:51:05;0.43;;;0.30;;
79348;SDS011;68817;48.110;11.660;2023-12-22T00:53:32;1.45;;;0.40;;
79348;SDS011;68817;48.110;11.660;2023-12-22T00:55:57;0.10;;;0.10;;
79348;SDS011;68817;48.110;11.660;2023-12-22T00:58:22;0.80;;;0.30;;
79348;SDS011;68817;48.110;11.660;2023-12-22T01:00:48;0.57;;;0.30;;
79348;SDS011;68817;48.110;11.660;2023-12-22T01:03:13;0.13;;;0.10;;
79348;SDS011;68817;48.110;11.660;2023-12-22T01:05:39;0.10;;;0.10;;
79348;SDS011;68817;48.110;11.660;2023-12-22T01:08:04;0.93;;;0.35;;
79348;SDS011;68817;48.110;11.660;2023-12-22T01:10:30;0.77;;;0.40;;
79348;SDS011;68817;48.110;11.660;2023-12-22T01:12:55;0.68;;;0.50;;
79348;SDS011;68817;48.110;11.660;2023-12-22T01:15:21;0.52;;;0.30;;
79348;SDS011;68817;48.110;11.660;2023-12-22T01:17:47;0.28;;;0.17;;
79348;SDS011;68817;48.110;11.660;2023-12-22T01:20:13;1.42;;;0.30;;
79348;SDS011;68817;48.110;11.660;2023-12-22T01:22:38;0.20;;;0.13;;
79348;SDS011;68817;48.110;11.660;2023-12-22T01:25:04;0.80;;;0.40;;
79348;SDS011;68817;48.110;11.660;2023-12-22T01:27:30;0.82;;;0.20;;
79348;SDS011;68817;48.110;11.660;2023-12-22T01:29:56;0.50;;;0.20;;
79348;SDS011;68817;48.110;11.660;2023-12-22T01:32:22;0.20;;;0.20;;
79348;SDS011;68817;48.110;11.660;2023-12-22T01:34:47;1.65;;;0.57;;
79348;SDS011;68817;48.110;11.660;2023-12-22T01:37:13;1.35;;;0.20;;
79348;SDS011;68817;48.110;11.660;2023-12-22T01:39:38;0.70;;;0.38;;
79348;SDS011;68817;48.110;11.660;2023-12-22T01:42:04;2.42;;;0.60;;
79348;SDS011;68817;48.110;11.660;2023-12-22T01:44:29;4.05;;;0.40;;
79348;SDS011;68817;48.110;11.660;2023-12-22T01:46:54;1.60;;;0.30;;
79348;SDS011;68817;48.110;11.660;2023-12-22T01:49:21;0.47;;;0.30;;
79348;SDS011;68817;48.110;11.660;2023-12-22T01:51:46;0.38;;;0.20;;
79348;SDS011;68817;48.110;11.660;2023-12-22T01:54:13;1.60;;;0.25;;
79348;SDS011;68817;48.110;11.660;2023-12-22T01:56:40;0.25;;;0.20;;
79348;SDS011;68817;48.110;11.660;2023-12-22T01:59:06;1.20;;;0.40;;
79348;SDS011;68817;48.110;11.660;2023-12-22T02:01:32;1.60;;;0.30;;
79348;SDS011;68817;48.110;11.660;2023-12-22T02:03:58;0.13;;;0.13;;
79348;SDS011;68817;48.110;11.660;2023-12-22T02:06:24;0.52;;;0.30;;
79348;SDS011;68817;48.110;11.660;2023-12-22T02:08:49;0.20;;;0.20;;
79348;SDS011;68817;48.110;11.660;2023-12-22T02:11:15;0.55;;;0.30;;
79348;SDS011;68817;48.110;11.660;2023-12-22T02:13:44;0.52;;;0.40;;
79348;SDS011;68817;48.110;11.660;2023-12-22T02:16:20;0.50;;;0.30;;
79348;SDS011;68817;48.110;11.660;2023-12-22T02:19:13;0.20;;;0.20;;
79348;SDS011;68817;48.110;11.660;2023-12-22T02:22:03;0.30;;;0.28;;
79348;SDS011;68817;48.110;11.660;2023-12-22T02:24:29;0.30;;;0.20;;
79348;SDS011;68817;48.110;11.660;2023-12-22T02:27:45;0.55;;;0.30;;
79348;SDS011;68817;48.110;11.660;2023-12-22T02:29:58;2.08;;;0.20;;
79348;SDS011;68817;48.110;11.660;2023-12-22T02:32:30;0.50;;;0.30;;
79348;SDS011;68817;48.110;11.660;2023-12-22T02:34:58;0.50;;;0.25;;
79348;SDS011;68817;48.110;11.660;2023-12-22T02:37:24;0.90;;;0.40;;
79348;SDS011;68817;48.110;11.660;2023-12-22T02:39:50;0.20;;;0.20;;
79348;SDS011;68817;48.110;11.660;2023-12-22T02:42:16;0.40;;;0.20;;
79348;SDS011;68817;48.110;11.660;2023-12-22T02:44:42;0.20;;;0.20;;
79348;SDS011;68817;48.110;11.660;2023-12-22T02:47:08;0.20;;;0.20;;
79348;SDS011;68817;48.110;11.660;2023-12-22T02:49:33;0.17;;;0.17;;
79348;SDS011;68817;48.110;11.660;2023-12-22T02:51:59;0.20;;;0.20;;
79348;SDS011;68817;48.110;11.660;2023-12-22T02:54:24;0.13;;;0.13;;
79348;SDS011;68817;48.110;11.660;2023-12-22T02:56:49;0.28;;;0.20;;
79348;SDS011;68817;48.110;11.660;2023-12-22T02:59:15;0.20;;;0.17;;
79348;SDS011;68817;48.110;11.660;2023-12-22T03:01:40;0.45;;;0.35;;
79348;SDS011;68817;48.110;11.660;2023-12-22T03:04:06;0.55;;;0.30;;
79348;SDS011;68817;48.110;11.660;2023-12-22T03:06:31;1.88;;;0.30;;
79348;SDS011;68817;48.110;11.660;2023-12-22T03:08:56;0.30;;;0.30;;
79348;SDS011;68817;48.110;11.660;2023-12-22T03:11:22;0.35;;;0.30;;
79348;SDS011;68817;48.110;11.660;2023-12-22T03:13:47;0.77;;;0.30;;
79348;SDS011;68817;48.110;11.660;2023-12-22T03:16:13;0.30;;;0.20;;
79348;SDS011;68817;48.110;11.660;2023-12-22T03:18:38;0.77;;;0.30;;
79348;SDS011;68817;48.110;11.660;2023-12-22T03:21:04;0.80;;;0.30;;
79348;SDS011;68817;48.110;11.660;2023-12-22T03:23:30;0.28;;;0.20;;
79348;SDS011;68817;48.110;11.660;2023-12-22T03:25:55;0.32;;;0.20;;
79348;SDS011;68817;48.110;11.660;2023-12-22T03:28:21;0.10;;;0.10;;
79348;SDS011;68817;48.110;11.660;2023-12-22T03:30:46;0.28;;;0.20;;
79348;SDS011;68817;48.110;11.660;2023-12-22T03:33:11;0.22;;;0.20;;
79348;SDS011;68817;48.110;11.660;2023-12-22T03:35:37;0.45;;;0.30;;
79348;SDS011;68817;48.110;11.660;2023-12-22T03:38:02;0.20;;;0.20;;
79348;SDS011;68817;48.110;11.660;2023-12-22T03:40:28;0.32;;;0.20;;
79348;SDS011;68817;48.110;11.660;2023-12-22T03:42:55;0.43;;;0.20;;
79348;SDS011;68817;48.110;11.660;2023-12-22T03:45:20;0.20;;;0.20;;
79348;SDS011;68817;48.110;11.660;2023-12-22T03:47:46;0.32;;;0.32;;
79348;SDS011;68817;48.110;11.660;2023-12-22T03:50:11;0.90;;;0.20;;
79348;SDS011;68817;48.110;11.660;2023-12-22T03:52:36;0.20;;;0.20;;
79348;SDS011;68817;48.110;11.660;2023-12-22T03:55:02;0.20;;;0.20;;
79348;SDS011;68817;48.110;11.660;2023-12-22T03:57:27;0.20;;;0.20;;
79348;SDS011;68817;48.110;11.660;2023-12-22T03:59:53;0.88;;;0.20;;
79348;SDS011;68817;48.110;11.660;2023-12-22T04:02:18;0.35;;;0.20;;
79348;SDS011;68817;48.110;11.660;2023-12-22T04:04:44;0.63;;;0.28;;
79348;SDS011;68817;48.110;11.660;2023-12-22T04:07:09;0.55;;;0.30;;
79348;SDS011;68817;48.110;11.660;2023-12-22T04:09:36;0.22;;;0.10;;
79348;SDS011;68817;48.110;11.660;2023-12-22T04:12:02;0.55;;;0.25;;
79348;SDS011;68817;48.110;11.660;2023-12-22T04:14:28;1.50;;;0.40;;
79348;SDS011;68817;48.110;11.660;2023-12-22T04:16:53;1.00;;;0.50;;
79348;SDS011;68817;48.110;11.660;2023-12-22T04:19:19;2.42;;;0.30;;
79348;SDS011;68817;48.110;11.660;2023-12-22T04:21:44;1.85;;;0.60;;
79348;SDS011;68817;48.110;11.660;2023-12-22T04:24:10;0.80;;;0.30;;
79348;SDS011;68817;48.110;11.660;2023-12-22T04:26:35;1.48;;;0.40;;
79348;SDS011;68817;48.110;11.660;2023-12-22T04:29:01;1.80;;;0.40;;
79348;SDS011;68817;48.110;11.660;2023-12-22T04:31:26;1.17;;;0.43;;
79348;SDS011;68817;48.110;11.660;2023-12-22T04:33:51;2.92;;;0.50;;
79348;SDS011;68817;48.110;11.660;2023-12-22T04:36:17;0.85;;;0.50;;
79348;SDS011;68817;48.110;11.660;2023-12-22T04:38:42;0.73;;;0.50;;
79348;SDS011;68817;48.110;11.660;2023-12-22T04:41:08;1.73;;;0.40;;
79348;SDS011;68817;48.110;11.660;2023-12-22T04:43:33;1.17;;;0.20;;
79348;SDS011;68817;48.110;11.660;2023-12-22T04:45:58;1.10;;;0.80;;
79348;SDS011;68817;48.110;11.660;2023-12-22T04:48:24;1.85;;;0.40;;
79348;SDS011;68817;48.110;11.660;2023-12-22T04:50:49;0.93;;;0.32;;
79348;SDS011;68817;48.110;11.660;2023-12-22T04:53:15;0.73;;;0.40;;
79348;SDS011;68817;48.110;11.660;2023-12-22T04:55:40;1.75;;;0.30;;
79348;SDS011;68817;48.110;11.660;2023-12-22T04:58:05;2.33;;;0.57;;
79348;SDS011;68817;48.110;11.660;2023-12-22T05:00:31;1.02;;;0.50;;
79348;SDS011;68817;48.110;11.660;2023-12-22T05:02:56;1.63;;;0.50;;
79348;SDS011;68817;48.110;11.660;2023-12-22T05:05:22;1.60;;;0.50;;
79348;SDS011;68817;48.110;11.660;2023-12-22T05:07:47;0.68;;;0.60;;
79348;SDS011;68817;48.110;11.660;2023-12-22T05:10:12;0.90;;;0.50;;
79348;SDS011;68817;48.110;11.660;2023-12-22T05:12:38;0.55;;;0.40;;
79348;SDS011;68817;48.110;11.660;2023-12-22T05:15:04;1.90;;;0.50;;
79348;SDS011;68817;48.110;11.660;2023-12-22T05:17:29;2.50;;;0.52;;
79348;SDS011;68817;48.110;11.660;2023-12-22T05:19:55;1.33;;;0.40;;
79348;SDS011;68817;48.110;11.660;2023-12-22T05:22:20;1.77;;;0.40;;
79348;SDS011;68817;48.110;11.660;2023-12-22T05:24:45;0.95;;;0.40;;
79348;SDS011;68817;48.110;11.660;2023-12-22T05:27:11;0.85;;;0.50;;
79348;SDS011;68817;48.110;11.660;2023-12-22T05:29:36;2.65;;;0.47;;
79348;SDS011;68817;48.110;11.660;2023-12-22T05:32:02;1.65;;;0.60;;
79348;SDS011;68817;48.110;11.660;2023-12-22T05:34:27;1.92;;;0.52;;
79348;SDS011;68817;48.110;11.660;2023-12-22T05:36:52;3.03;;;0.57;;
79348;SDS011;68817;48.110;11.660;2023-12-22T05:39:18;1.70;;;0.57;;
79348;SDS011;68817;48.110;11.660;2023-12-22T05:41:43;0.55;;;0.30;;
79348;SDS011;68817;48.110;11.660;2023-12-22T05:44:09;1.33;;;0.60;;
79348;SDS011;68817;48.110;11.660;2023-12-22T05:46:37;2.05;;;0.43;;
79348;SDS011;68817;48.110;11.660;2023-12-22T05:49:03;4.80;;;1.00;;
79348;SDS011;68817;48.110;11.660;2023-12-22T05:51:29;1.17;;;0.32;;
79348;SDS011;68817;48.110;11.660;2023-12-22T05:53:54;1.38;;;0.40;;
79348;SDS011;68817;48.110;11.660;2023-12-22T05:56:20;3.08;;;0.55;;
79348;SDS011;68817;48.110;11.660;2023-12-22T05:58:46;1.23;;;0.52;;
79348;SDS011;68817;48.110;11.660;2023-12-22T06:01:18;1.30;;;0.63;;
79348;SDS011;68817;48.110;11.660;2023-12-22T06:03:46;2.13;;;0.45;;
79348;SDS011;68817;48.110;11.660;2023-12-22T06:06:12;2.08;;;0.50;;
79348;SDS011;68817;48.110;11.660;2023-12-22T06:08:37;2.50;;;0.68;;
79348;SDS011;68817;48.110;11.660;2023-12-22T06:11:03;1.60;;;0.60;;
79348;SDS011;68817;48.110;11.660;2023-12-22T06:13:29;2.20;;;0.68;;
79348;SDS011;68817;48.110;11.660;2023-12-22T06:15:54;1.23;;;0.38;;
79348;SDS011;68817;48.110;11.660;2023-12-22T06:18:20;1.95;;;0.43;;
79348;SDS011;68817;48.110;11.660;2023-12-22T06:20:45;1.92;;;0.60;;
79348;SDS011;68817;48.110;11.660;2023-12-22T06:23:10;0.85;;;0.40;;
79348;SDS011;68817;48.110;11.660;2023-12-22T06:25:36;0.80;;;0.38;;
79348;SDS011;68817;48.110;11.660;2023-12-22T06:28:01;2.88;;;0.50;;
79348;SDS011;68817;48.110;11.660;2023-12-22T06:30:26;1.48;;;0.68;;
79348;SDS011;68817;48.110;11.660;2023-12-22T06:32:52;0.85;;;0.43;;
79348;SDS011;68817;48.110;11.660;2023-12-22T06:35:17;1.95;;;0.60;;
79348;SDS011;68817;48.110;11.660;2023-12-22T06:37:48;2.50;;;0.43;;
79348;SDS011;68817;48.110;11.660;2023-12-22T06:40:14;0.88;;;0.35;;
79348;SDS011;68817;48.110;11.660;2023-12-22T06:42:39;2.58;;;0.40;;
79348;SDS011;68817;48.110;11.660;2023-12-22T06:45:05;1.77;;;0.50;;
79348;SDS011;68817;48.110;11.660;2023-12-22T06:47:30;2.28;;;0.70;;
79348;SDS011;68817;48.110;11.660;2023-12-22T06:49:56;1.67;;;0.60;;
79348;SDS011;68817;48.110;11.660;2023-12-22T06:52:21;2.63;;;0.50;;
79348;SDS011;68817;48.110;11.660;2023-12-22T06:54:47;3.33;;;0.65;;
79348;SDS011;68817;48.110;11.660;2023-12-22T06:57:12;3.58;;;0.77;;
79348;SDS011;68817;48.110;11.660;2023-12-22T06:59:38;3.70;;;0.50;;
79348;SDS011;68817;48.110;11.660;2023-12-22T07:02:04;1.98;;;0.60;;
79348;SDS011;68817;48.110;11.660;2023-12-22T07:07:33;2.22;;;0.60;;
79348;SDS011;68817;48.110;11.660;2023-12-22T07:09:59;2.70;;;0.55;;
79348;SDS011;68817;48.110;11.660;2023-12-22T07:12:24;2.13;;;0.70;;
79348;SDS011;68817;48.110;11.660;2023-12-22T07:14:50;5.95;;;0.82;;
79348;SDS011;68817;48.110;11.660;2023-12-22T07:17:15;5.25;;;0.95;;
79348;SDS011;68817;48.110;11.660;2023-12-22T07:19:40;3.25;;;0.98;;
79348;SDS011;68817;48.110;11.660;2023-12-22T07:22:06;3.20;;;0.73;;
79348;SDS011;68817;48.110;11.660;2023-12-22T07:24:31;2.63;;;0.63;;
79348;SDS011;68817;48.110;11.660;2023-12-22T07:26:57;5.90;;;0.60;;
79348;SDS011;68817;48.110;11.660;2023-12-22T07:29:22;1.35;;;0.50;;
79348;SDS011;68817;48.110;11.660;2023-12-22T07:31:48;2.50;;;0.73;;
79348;SDS011;68817;48.110;11.660;2023-12-22T07:34:13;2.80;;;0.60;;
79348;SDS011;68817;48.110;11.660;2023-12-22T07:36:39;2.22;;;0.70;;
79348;SDS011;68817;48.110;11.660;2023-12-22T07:39:04;0.77;;;0.52;;
79348;SDS011;68817;48.110;11.660;2023-12-22T07:41:31;3.20;;;0.73;;
79348;SDS011;68817;48.110;11.660;2023-12-22T07:43:57;2.20;;;0.68;;
79348;SDS011;68817;48.110;11.660;2023-12-22T07:46:22;2.13;;;0.82;;
79348;SDS011;68817;48.110;11.660;2023-12-22T07:48:48;2.15;;;0.70;;
79348;SDS011;68817;48.110;11.660;2023-12-22T07:51:14;3.60;;;0.60;;
79348;SDS011;68817;48.110;11.660;2023-12-22T07:53:39;3.45;;;0.77;;
79348;SDS011;68817;48.110;11.660;2023-12-22T07:56:05;4.57;;;0.85;;
79348;SDS011;68817;48.110;11.660;2023-12-22T07:58:31;4.93;;;0.80;;
79348;SDS011;68817;48.110;11.660;2023-12-22T08:00:57;6.65;;;0.90;;
79348;SDS011;68817;48.110;11.660;2023-12-22T08:03:23;2.47;;;0.57;;
79348;SDS011;68817;48.110;11.660;2023-12-22T08:05:49;2.88;;;0.68;;
79348;SDS011;68817;48.110;11.660;2023-12-22T08:08:14;1.85;;;0.52;;
79348;SDS011;68817;48.110;11.660;2023-12-22T08:10:40;2.38;;;1.17;;
79348;SDS011;68817;48.110;11.660;2023-12-22T08:13:06;2.65;;;0.90;;
79348;SDS011;68817;48.110;11.660;2023-12-22T08:15:31;1.70;;;0.60;;
79348;SDS011;68817;48.110;11.660;2023-12-22T08:17:57;2.30;;;0.60;;
79348;SDS011;68817;48.110;11.660;2023-12-22T08:20:22;1.35;;;0.55;;
79348;SDS011;68817;48.110;11.660;2023-12-22T08:22:48;1.77;;;0.60;;
79348;SDS011;68817;48.110;11.660;2023-12-22T08:25:14;0.60;;;0.43;;
79348;SDS011;68817;48.110;11.660;2023-12-22T08:27:40;4.63;;;1.30;;
79348;SDS011;68817;48.110;11.660;2023-12-22T08:30:06;1.10;;;0.50;;
79348;SDS011;68817;48.110;11.660;2023-12-22T08:32:31;3.92;;;0.63;;
79348;SDS011;68817;48.110;11.660;2023-12-22T08:34:57;2.22;;;0.50;;
79348;SDS011;68817;48.110;11.660;2023-12-22T08:37:22;2.35;;;1.10;;
79348;SDS011;68817;48.110;11.660;2023-12-22T08:39:48;1.52;;;0.70;;
79348;SDS011;68817;48.110;11.660;2023-12-22T08:42:13;2.13;;;0.57;;
79348;SDS011;68817;48.110;11.660;2023-12-22T08:44:39;3.30;;;0.65;;
79348;SDS011;68817;48.110;11.660;2023-12-22T08:47:04;2.38;;;0.70;;
79348;SDS011;68817;48.110;11.660;2023-12-22T08:49:30;4.55;;;0.88;;
79348;SDS011;68817;48.110;11.660;2023-12-22T08:51:55;2.38;;;1.00;;
79348;SDS011;68817;48.110;11.660;2023-12-22T08:54:21;4.70;;;0.90;;
79348;SDS011;68817;48.110;11.660;2023-12-22T08:56:46;3.03;;;0.60;;
79348;SDS011;68817;48.110;11.660;2023-12-22T08:59:12;2.20;;;0.60;;
79348;SDS011;68817;48.110;11.660;2023-12-22T09:01:37;2.20;;;0.63;;
79348;SDS011;68817;48.110;11.660;2023-12-22T09:04:03;2.63;;;0.60;;
79348;SDS011;68817;48.110;11.660;2023-12-22T09:06:28;2.70;;;0.80;;
79348;SDS011;68817;48.110;11.660;2023-12-22T09:08:54;2.78;;;0.73;;
79348;SDS011;68817;48.110;11.660;2023-12-22T09:11:19;2.30;;;0.80;;
79348;SDS011;68817;48.110;11.660;2023-12-22T09:13:46;2.08;;;0.65;;
79348;SDS011;68817;48.110;11.660;2023-12-22T09:16:11;4.38;;;0.98;;
79348;SDS011;68817;48.110;11.660;2023-12-22T09:18:40;4.20;;;0.93;;
79348;SDS011;68817;48.110;11.660;2023-12-22T09:21:05;1.70;;;0.60;;
79348;SDS011;68817;48.110;11.660;2023-12-22T09:23:32;3.05;;;0.70;;
79348;SDS011;68817;48.110;11.660;2023-12-22T09:25:57;3.30;;;1.05;;
79348;SDS011;68817;48.110;11.660;2023-12-22T09:28:23;1.48;;;0.80;;
79348;SDS011;68817;48.110;11.660;2023-12-22T09:30:49;3.60;;;0.93;;
79348;SDS011;68817;48.110;11.660;2023-12-22T09:33:14;3.05;;;0.90;;
79348;SDS011;68817;48.110;11.660;2023-12-22T09:35:40;3.03;;;0.75;;
79348;SDS011;68817;48.110;11.660;2023-12-22T09:38:07;4.22;;;0.70;;
79348;SDS011;68817;48.110;11.660;2023-12-22T09:40:34;3.63;;;0.93;;
79348;SDS011;68817;48.110;11.660;2023-12-22T09:43:01;5.07;;;0.70;;
79348;SDS011;68817;48.110;11.660;2023-12-22T09:45:27;3.72;;;0.80;;
79348;SDS011;68817;48.110;11.660;2023-12-22T09:47:55;2.67;;;1.35;;
79348;SDS011;68817;48.110;11.660;2023-12-22T09:50:21;2.38;;;0.95;;
79348;SDS011;68817;48.110;11.660;2023-12-22T09:52:47;1.75;;;0.70;;
79348;SDS011;68817;48.110;11.660;2023-12-22T09:55:13;3.83;;;0.63;;
79348;SDS011;68817;48.110;11.660;2023-12-22T09:57:38;3.40;;;0.90;;
79348;SDS011;68817;48.110;11.660;2023-12-22T10:00:06;1.75;;;0.60;;
79348;SDS011;68817;48.110;11.660;2023-12-22T10:02:38;1.73;;;0.60;;
79348;SDS011;68817;48.110;11.660;2023-12-22T10:05:04;0.43;;;0.40;;
79348;SDS011;68817;48.110;11.660;2023-12-22T10:07:30;1.27;;;0.30;;
79348;SDS011;68817;48.110;11.660;2023-12-22T10:09:56;0.80;;;0.45;;
79348;SDS011;68817;48.110;11.660;2023-12-22T10:12:23;0.82;;;0.45;;
79348;SDS011;68817;48.110;11.660;2023-12-22T10:14:49;1.38;;;0.43;;
79348;SDS011;68817;48.110;11.660;2023-12-22T10:17:15;2.63;;;0.60;;
79348;SDS011;68817;48.110;11.660;2023-12-22T10:19:41;0.30;;;0.20;;
79348;SDS011;68817;48.110;11.660;2023-12-22T10:22:07;2.50;;;0.40;;
79348;SDS011;68817;48.110;11.660;2023-12-22T10:24:42;1.13;;;0.30;;
79348;SDS011;68817;48.110;11.660;2023-12-22T10:27:08;0.40;;;0.30;;
79348;SDS011;68817;48.110;11.660;2023-12-22T10:29:37;1.55;;;0.32;;
79348;SDS011;68817;48.110;11.660;2023-12-22T10:32:03;1.17;;;0.40;;
79348;SDS011;68817;48.110;11.660;2023-12-22T10:34:32;1.55;;;0.30;;
79348;SDS011;68817;48.110;11.660;2023-12-22T10:37:00;2.20;;;0.60;;
79348;SDS011;68817;48.110;11.660;2023-12-22T10:39:27;0.57;;;0.30;;
79348;SDS011;68817;48.110;11.660;2023-12-22T10:41:53;0.68;;;0.30;;
79348;SDS011;68817;48.110;11.660;2023-12-22T10:44:19;0.75;;;0.10;;
79348;SDS011;68817;48.110;11.660;2023-12-22T10:46:44;0.20;;;0.20;;
79348;SDS011;68817;48.110;11.660;2023-12-22T10:49:12;0.93;;;0.30;;
79348;SDS011;68817;48.110;11.660;2023-12-22T10:51:37;1.15;;;0.30;;
79348;SDS011;68817;48.110;11.660;2023-12-22T10:54:04;0.85;;;0.60;;
79348;SDS011;68817;48.110;11.660;2023-12-22T10:56:30;1.70;;;0.55;;
79348;SDS011;68817;48.110;11.660;2023-12-22T10:58:56;1.50;;;0.35;;
79348;SDS011;68817;48.110;11.660;2023-12-22T11:01:23;2.25;;;0.50;;
79348;SDS011;68817;48.110;11.660;2023-12-22T11:03:53;1.15;;;0.57;;
79348;SDS011;68817;48.110;11.660;2023-12-22T11:06:23;1.90;;;0.45;;
79348;SDS011;68817;48.110;11.660;2023-12-22T11:08:52;0.75;;;0.40;;
79348;SDS011;68817;48.110;11.660;2023-12-22T11:13:59;2.03;;;0.70;;
79348;SDS011;68817;48.110;11.660;2023-12-22T11:16:24;3.58;;;0.52;;
79348;SDS011;68817;48.110;11.660;2023-12-22T11:18:53;1.60;;;0.60;;
79348;SDS011;68817;48.110;11.660;2023-12-22T11:21:24;2.35;;;0.60;;
79348;SDS011;68817;48.110;11.660;2023-12-22T11:23:50;1.95;;;0.70;;
79348;SDS011;68817;48.110;11.660;2023-12-22T11:26:20;1.58;;;0.70;;
79348;SDS011;68817;48.110;11.660;2023-12-22T11:28:47;0.73;;;0.30;;
79348;SDS011;68817;48.110;11.660;2023-12-22T11:31:13;1.85;;;0.70;;
79348;SDS011;68817;48.110;11.660;2023-12-22T11:33:40;2.22;;;0.70;;
79348;SDS011;68817;48.110;11.660;2023-12-22T11:36:08;2.58;;;0.82;;
79348;SDS011;68817;48.110;11.660;2023-12-22T11:38:35;2.25;;;0.45;;
79348;SDS011;68817;48.110;11.660;2023-12-22T11:41:00;3.80;;;0.88;;
79348;SDS011;68817;48.110;11.660;2023-12-22T11:43:26;3.47;;;0.98;;
79348;SDS011;68817;48.110;11.660;2023-12-22T11:46:05;1.50;;;0.70;;
79348;SDS011;68817;48.110;11.660;2023-12-22T11:48:30;1.35;;;0.60;;
79348;SDS011;68817;48.110;11.660;2023-12-22T11:50:56;0.95;;;0.65;;
79348;SDS011;68817;48.110;11.660;2023-12-22T11:53:22;1.75;;;0.47;;
79348;SDS011;68817;48.110;11.660;2023-12-22T11:56:02;1.42;;;0.55;;
79348;SDS011;68817;48.110;11.660;2023-12-22T11:58:43;0.88;;;0.55;;
79348;SDS011;68817;48.110;11.660;2023-12-22T12:01:09;3.30;;;0.80;;
79348;SDS011;68817;48.110;11.660;2023-12-22T12:03:39;1.10;;;0.55;;
79348;SDS011;68817;48.110;11.660;2023-12-22T12:06:49;1.45;;;0.50;;
79348;SDS011;68817;48.110;11.660;2023-12-22T12:08:57;1.30;;;0.70;;
79348;SDS011;68817;48.110;11.660;2023-12-22T12:14:16;2.20;;;0.60;;
79348;SDS011;68817;48.110;11.660;2023-12-22T12:16:47;3.00;;;0.70;;
79348;SDS011;68817;48.110;11.660;2023-12-22T12:19:13;1.70;;;0.57;;
79348;SDS011;68817;48.110;11.660;2023-12-22T12:21:39;1.58;;;0.73;;
79348;SDS011;68817;48.110;11.660;2023-12-22T12:24:05;5.32;;;1.40;;
79348;SDS011;68817;48.110;11.660;2023-12-22T12:26:30;4.13;;;0.98;;
79348;SDS011;68817;48.110;11.660;2023-12-22T12:28:57;2.55;;;0.60;;
79348;SDS011;68817;48.110;11.660;2023-12-22T12:31:35;1.50;;;0.75;;
79348;SDS011;68817;48.110;11.660;2023-12-22T12:34:01;2.17;;;0.60;;
79348;SDS011;68817;48.110;11.660;2023-12-22T12:36:27;4.93;;;0.95;;
79348;SDS011;68817;48.110;11.660;2023-12-22T12:38:57;3.60;;;0.77;;
79348;SDS011;68817;48.110;11.660;2023-12-22T12:41:35;4.78;;;0.93;;
79348;SDS011;68817;48.110;11.660;2023-12-22T12:44:03;1.55;;;0.73;;
79348;SDS011;68817;48.110;11.660;2023-12-22T12:46:36;3.50;;;0.93;;
79348;SDS011;68817;48.110;11.660;2023-12-22T12:49:07;1.95;;;0.70;;
79348;SDS011;68817;48.110;11.660;2023-12-22T12:51:43;3.58;;;0.80;;
79348;SDS011;68817;48.110;11.660;2023-12-22T12:54:10;3.70;;;0.73;;
79348;SDS011;68817;48.110;11.660;2023-12-22T12:59:11;2.92;;;0.90;;
79348;SDS011;68817;48.110;11.660;2023-12-22T13:01:41;0.88;;;0.50;;
79348;SDS011;68817;48.110;11.660;2023-12-22T13:04:07;2.47;;;0.80;;
79348;SDS011;68817;48.110;11.660;2023-12-22T13:06:32;3.40;;;0.80;;
79348;SDS011;68817;48.110;11.660;2023-12-22T13:08:58;2.17;;;0.70;;
79348;SDS011;68817;48.110;11.660;2023-12-22T13:11:28;2.25;;;0.95;;
79348;SDS011;68817;48.110;11.660;2023-12-22T13:13:56;2.05;;;0.70;;
79348;SDS011;68817;48.110;11.660;2023-12-22T13:16:22;1.17;;;0.63;;
79348;SDS011;68817;48.110;11.660;2023-12-22T13:18:51;4.85;;;0.82;;
79348;SDS011;68817;48.110;11.660;2023-12-22T13:21:17;2.92;;;0.93;;
79348;SDS011;68817;48.110;11.660;2023-12-22T13:23:42;2.40;;;0.80;;
79348;SDS011;68817;48.110;11.660;2023-12-22T13:26:17;2.83;;;0.52;;
79348;SDS011;68817;48.110;11.660;2023-12-22T13:28:44;1.85;;;0.50;;
79348;SDS011;68817;48.110;11.660;2023-12-22T13:31:10;2.85;;;0.40;;
79348;SDS011;68817;48.110;11.660;2023-12-22T13:33:38;1.63;;;0.43;;
79348;SDS011;68817;48.110;11.660;2023-12-22T13:36:04;1.13;;;0.60;;
79348;SDS011;68817;48.110;11.660;2023-12-22T13:38:31;1.52;;;0.55;;
79348;SDS011;68817;48.110;11.660;2023-12-22T13:40:56;1.52;;;0.63;;
79348;SDS011;68817;48.110;11.660;2023-12-22T13:43:22;1.33;;;0.70;;
79348;SDS011;68817;48.110;11.660;2023-12-22T13:45:50;0.98;;;0.68;;
79348;SDS011;68817;48.110;11.660;2023-12-22T13:48:16;1.52;;;0.60;;
79348;SDS011;68817;48.110;11.660;2023-12-22T13:50:42;1.25;;;0.85;;
79348;SDS011;68817;48.110;11.660;2023-12-22T13:53:10;1.13;;;0.60;;
79348;SDS011;68817;48.110;11.660;2023-12-22T13:55:36;2.90;;;0.80;;
79348;SDS011;68817;48.110;11.660;2023-12-22T13:58:03;2.45;;;0.60;;
79348;SDS011;68817;48.110;11.660;2023-12-22T14:00:29;1.42;;;0.57;;
79348;SDS011;68817;48.110;11.660;2023-12-22T14:02:54;1.42;;;0.40;;
79348;SDS011;68817;48.110;11.660;2023-12-22T14:05:20;2.78;;;0.65;;
79348;SDS011;68817;48.110;11.660;2023-12-22T14:07:46;2.67;;;0.80;;
79348;SDS011;68817;48.110;11.660;2023-12-22T14:10:12;2.05;;;0.45;;
79348;SDS011;68817;48.110;11.660;2023-12-22T14:12:38;2.50;;;0.95;;
79348;SDS011;68817;48.110;11.660;2023-12-22T14:15:07;1.38;;;0.60;;
79348;SDS011;68817;48.110;11.660;2023-12-22T14:17:36;1.13;;;0.63;;
79348;SDS011;68817;48.110;11.660;2023-12-22T14:20:01;0.93;;;0.40;;
79348;SDS011;68817;48.110;11.660;2023-12-22T14:22:29;2.58;;;0.60;;
79348;SDS011;68817;48.110;11.660;2023-12-22T14:24:55;2.03;;;0.52;;
79348;SDS011;68817;48.110;11.660;2023-12-22T14:27:22;1.20;;;0.63;;
79348;SDS011;68817;48.110;11.660;2023-12-22T14:29:48;2.25;;;0.65;;
79348;SDS011;68817;48.110;11.660;2023-12-22T14:32:14;0.68;;;0.50;;
79348;SDS011;68817;48.110;11.660;2023-12-22T14:34:47;1.98;;;0.35;;
79348;SDS011;68817;48.110;11.660;2023-12-22T14:37:12;1.10;;;0.63;;
79348;SDS011;68817;48.110;11.660;2023-12-22T14:39:38;0.85;;;0.73;;